createdAt,value
2022-09-12T00:01:41.777Z,24.70
2022-09-12T00:04:16.887Z,24.02
2022-09-12T00:07:03.791Z,22.55
2022-09-12T00:09:36.906Z,23.45
2022-09-12T00:12:23.793Z,24.55
2022-09-12T00:14:56.863Z,22.13
2022-09-12T00:17:44.806Z,22.10
2022-09-12T00:20:17.923Z,22.00
2022-09-12T00:23:04.851Z,21.50
2022-09-12T00:25:37.885Z,23.85
2022-09-12T00:28:25.802Z,23.40
2022-09-12T00:30:58.881Z,21.85
2022-09-12T00:33:46.783Z,23.73
2022-09-12T00:36:25.876Z,22.73
2022-09-12T00:39:12.807Z,21.95
2022-09-12T00:41:46.977Z,22.08
2022-09-12T00:44:33.821Z,21.67
2022-09-12T00:47:23.865Z,24.15
2022-09-12T00:50:16.822Z,22.23
2022-09-12T00:53:04.819Z,23.77
2022-09-12T00:56:03.813Z,23.52
2022-09-12T00:58:57.814Z,23.55
2022-09-12T01:01:32.782Z,24.73
2022-09-12T01:04:19.809Z,24.02
2022-09-12T01:06:53.869Z,27.75
2022-09-12T01:09:41.835Z,24.15
2022-09-12T01:12:14.889Z,21.67
2022-09-12T01:15:08.830Z,22.75
2022-09-12T01:18:07.824Z,22.52
2022-09-12T01:21:07.827Z,24.65
2022-09-12T01:24:01.850Z,21.48
2022-09-12T01:27:19.826Z,23.23
2022-09-12T01:30:05.049Z,23.60
2022-09-12T01:33:12.822Z,22.08
2022-09-12T01:36:34.861Z,22.00
2022-09-12T01:39:53.895Z,23.90
2022-09-12T01:43:09.832Z,23.05
2022-09-12T01:45:57.962Z,22.25
2022-09-12T01:48:44.873Z,22.50
2022-09-12T01:51:42.833Z,22.73
2022-09-12T01:54:22.141Z,23.65
2022-09-12T01:57:13.854Z,22.50
2022-09-12T01:59:51.390Z,24.55
2022-09-12T02:03:09.838Z,23.25
2022-09-12T02:06:24.848Z,24.25
2022-09-12T02:09:01.913Z,21.08
2022-09-12T02:11:50.839Z,23.35
2022-09-12T02:14:39.848Z,23.67
2022-09-12T02:17:36.851Z,22.20
2022-09-12T02:20:48.470Z,23.67
2022-09-12T02:23:37.845Z,23.60
2022-09-12T02:26:48.875Z,21.35
2022-09-12T02:29:42.849Z,22.23
2022-09-12T02:32:41.884Z,21.45
2022-09-12T02:35:38.863Z,22.58
2022-09-12T02:38:42.889Z,24.13
2022-09-12T02:41:15.924Z,21.98
2022-09-12T02:44:02.854Z,25.13
2022-09-12T02:46:54.885Z,23.02
2022-09-12T02:49:48.867Z,22.63
2022-09-12T02:52:42.865Z,23.30
2022-09-12T02:55:30.871Z,22.75
2022-09-12T02:58:10.895Z,22.45
2022-09-12T03:01:09.936Z,24.15
2022-09-12T03:04:05.854Z,23.55
2022-09-12T03:06:47.938Z,21.40
2022-09-12T03:09:53.874Z,21.58
2022-09-12T03:12:48.880Z,23.27
2022-09-12T03:15:57.862Z,24.27
2022-09-12T03:19:17.881Z,23.58
2022-09-12T03:22:34.871Z,22.90
2022-09-12T03:25:30.904Z,21.33
2022-09-12T03:28:09.372Z,22.33
2022-09-12T03:31:00.939Z,22.15
2022-09-12T03:33:40.913Z,21.85
2022-09-12T03:36:39.882Z,21.30
2022-09-12T03:39:27.916Z,18.73
2022-09-12T03:42:08.894Z,20.88
2022-09-12T03:44:55.908Z,19.85
2022-09-12T03:47:28.947Z,19.58
2022-09-12T03:50:15.901Z,21.05
2022-09-12T03:52:48.959Z,20.95
2022-09-12T03:55:35.904Z,19.35
2022-09-12T03:58:08.986Z,19.67
2022-09-12T04:00:55.926Z,17.95
2022-09-12T04:03:29.022Z,17.10
2022-09-12T04:06:17.905Z,19.42
2022-09-12T04:08:59.986Z,18.70
2022-09-12T04:11:46.910Z,17.73
2022-09-12T04:14:20.018Z,19.17
2022-09-12T04:17:06.916Z,18.23
2022-09-12T04:19:39.988Z,16.30
2022-09-12T04:22:27.902Z,18.30
2022-09-12T04:25:00.997Z,19.90
2022-09-12T04:27:47.905Z,18.60
2022-09-12T04:30:20.995Z,20.50
2022-09-12T04:33:08.288Z,21.35
2022-09-12T04:35:42.930Z,18.67
2022-09-12T04:38:29.926Z,20.17
2022-09-12T04:41:02.983Z,19.75
2022-09-12T04:43:52.932Z,22.08
2022-09-12T04:46:25.992Z,17.83
2022-09-12T04:49:12.928Z,20.13
2022-09-12T04:51:48.042Z,21.92
2022-09-12T04:54:34.898Z,18.30
2022-09-12T04:57:14.920Z,17.77
2022-09-12T05:00:06.476Z,18.77
2022-09-12T05:02:47.933Z,18.08
2022-09-12T05:05:41.932Z,18.67
2022-09-12T05:08:28.950Z,20.27
2022-09-12T05:11:02.000Z,18.63
2022-09-12T05:13:48.928Z,16.80
2022-09-12T05:16:24.274Z,17.08
2022-09-12T05:19:10.940Z,19.40
2022-09-12T05:21:44.053Z,16.45
2022-09-12T05:24:30.935Z,16.52
2022-09-12T05:27:04.843Z,17.20
2022-09-12T05:29:51.957Z,16.00
2022-09-12T05:32:31.940Z,16.75
2022-09-12T05:35:25.949Z,16.33
2022-09-12T05:38:13.929Z,16.70
2022-09-12T05:40:46.995Z,15.32
2022-09-12T05:43:33.950Z,18.48
2022-09-12T05:46:15.048Z,18.17
2022-09-12T05:49:02.958Z,16.58
2022-09-12T05:51:41.518Z,18.20
2022-09-12T05:54:31.377Z,21.55
2022-09-12T05:57:11.970Z,21.67
2022-09-12T05:59:58.947Z,20.45
2022-09-12T06:02:39.010Z,21.73
2022-09-12T06:05:32.949Z,19.77
2022-09-12T06:08:19.961Z,20.73
2022-09-12T06:10:53.124Z,21.25
2022-09-12T06:13:40.985Z,21.40
2022-09-12T06:16:26.013Z,20.42
2022-09-12T06:19:18.970Z,18.83
2022-09-12T06:21:53.475Z,22.70
2022-09-12T06:24:32.966Z,20.00
2022-09-12T06:27:12.963Z,22.10
2022-09-12T06:29:46.033Z,21.88
2022-09-12T06:32:32.969Z,23.50
2022-09-12T06:35:06.049Z,22.67
2022-09-12T06:37:52.967Z,19.80
2022-09-12T06:40:33.994Z,17.85
2022-09-12T06:43:27.977Z,20.65
2022-09-12T06:46:16.037Z,20.17
2022-09-12T06:48:55.962Z,19.73
2022-09-12T06:51:42.969Z,18.23
2022-09-12T06:54:26.979Z,19.92
2022-09-12T06:57:20.970Z,20.85
2022-09-12T07:00:07.998Z,18.05
2022-09-12T07:02:41.183Z,19.00
2022-09-12T07:05:27.971Z,20.75
2022-09-12T07:08:01.058Z,20.55
2022-09-12T07:10:47.985Z,22.67
2022-09-12T07:13:21.345Z,22.90
2022-09-12T07:16:21.098Z,19.92
2022-09-12T07:19:10.003Z,18.85
2022-09-12T07:21:46.082Z,19.45
2022-09-12T07:24:32.995Z,26.08
2022-09-12T07:27:06.074Z,22.17
2022-09-12T07:29:53.984Z,21.23
2022-09-12T07:32:34.003Z,21.65
2022-09-12T07:35:21.008Z,20.17
2022-09-12T07:38:01.014Z,20.50
2022-09-12T07:40:54.997Z,21.80
2022-09-12T07:43:42.086Z,20.65
2022-09-12T07:46:23.019Z,18.60
2022-09-12T07:49:10.011Z,19.42
2022-09-12T07:51:43.476Z,19.58
2022-09-12T07:54:30.018Z,16.65
2022-09-12T07:57:03.069Z,15.90
2022-09-12T07:59:53.051Z,18.52
2022-09-12T08:02:27.131Z,20.13
2022-09-12T08:05:14.028Z,21.23
2022-09-12T08:07:57.650Z,18.50
2022-09-12T08:10:52.032Z,21.30
2022-09-12T08:13:49.569Z,20.52
2022-09-12T08:16:46.006Z,18.73
2022-09-12T08:19:40.027Z,21.33
2022-09-12T08:22:34.012Z,17.83
2022-09-12T08:25:21.027Z,16.77
2022-09-12T08:27:54.343Z,17.95
2022-09-12T08:30:41.078Z,18.10
2022-09-12T08:33:22.020Z,17.33
2022-09-12T08:36:20.029Z,19.95
2022-09-12T08:39:04.035Z,21.30
2022-09-12T08:42:00.094Z,17.90
2022-09-12T08:44:49.047Z,19.27
2022-09-12T08:47:35.050Z,20.15
2022-09-12T08:50:32.050Z,18.58
2022-09-12T08:53:27.044Z,16.40
2022-09-12T08:56:11.021Z,19.25
2022-09-12T08:58:58.055Z,18.25
2022-09-12T09:01:49.143Z,18.77
2022-09-12T09:05:05.046Z,19.80
2022-09-12T09:08:10.042Z,18.73
2022-09-12T09:10:53.195Z,15.85
2022-09-12T09:14:13.056Z,17.70
2022-09-12T09:16:56.063Z,19.05
2022-09-12T09:19:50.646Z,18.23
2022-09-12T09:22:50.061Z,17.20
2022-09-12T09:26:00.058Z,17.27
2022-09-12T09:28:49.085Z,17.15
2022-09-12T09:31:51.073Z,18.60
2022-09-12T09:34:45.045Z,16.13
2022-09-12T09:37:54.539Z,17.52
2022-09-12T09:41:06.064Z,15.88
2022-09-12T09:44:00.106Z,15.80
2022-09-12T09:46:54.063Z,18.25
2022-09-12T09:49:48.084Z,17.52
2022-09-12T09:52:38.061Z,18.38
2022-09-12T09:55:19.086Z,18.38
2022-09-12T09:58:13.056Z,18.65
2022-09-12T10:01:06.124Z,15.90
2022-09-12T10:03:47.144Z,19.73
2022-09-12T10:06:46.058Z,18.02
2022-09-12T10:09:41.082Z,18.17
2022-09-12T10:12:39.065Z,17.38
2022-09-12T10:15:36.145Z,18.55
2022-09-12T10:18:48.078Z,17.00
2022-09-12T10:21:41.043Z,16.98
2022-09-12T10:24:28.182Z,20.50
2022-09-12T10:27:29.100Z,17.90
2022-09-12T10:30:14.452Z,17.50
2022-09-12T10:33:05.077Z,18.75
2022-09-12T10:35:51.922Z,18.85
2022-09-12T10:38:46.085Z,17.55
2022-09-12T10:41:21.850Z,17.83
2022-09-12T10:44:21.095Z,19.90
2022-09-12T10:46:55.786Z,20.17
2022-09-12T10:49:47.098Z,18.85
2022-09-12T10:52:24.964Z,19.10
2022-09-12T10:55:12.107Z,20.40
2022-09-12T10:58:14.439Z,18.98
2022-09-12T11:01:09.135Z,21.33
2022-09-12T11:04:10.100Z,18.58
2022-09-12T11:06:58.180Z,19.20
2022-09-12T11:09:42.094Z,19.83
2022-09-12T11:12:42.217Z,16.40
2022-09-12T11:16:01.191Z,16.70
2022-09-12T11:19:24.101Z,18.67
2022-09-12T11:22:25.281Z,17.02
2022-09-12T11:25:39.106Z,16.02
2022-09-12T11:28:31.224Z,16.90
2022-09-12T11:31:51.100Z,17.80
2022-09-12T11:34:40.199Z,16.10
2022-09-12T11:37:52.113Z,16.10
2022-09-12T11:41:07.122Z,16.23
2022-09-12T11:44:29.117Z,16.38
2022-09-12T11:47:27.154Z,16.58
2022-09-12T11:50:28.126Z,15.57
2022-09-12T11:53:07.074Z,15.38
2022-09-12T11:56:05.115Z,17.02
2022-09-12T11:58:38.221Z,18.52
2022-09-12T12:01:36.271Z,16.48
2022-09-12T12:04:18.219Z,15.68
2022-09-12T12:07:23.137Z,17.80
2022-09-12T12:10:05.125Z,18.38
2022-09-12T12:12:59.150Z,15.82
2022-09-12T12:15:53.228Z,17.08
2022-09-12T12:18:50.154Z,19.00
2022-09-12T12:21:49.141Z,16.58
2022-09-12T12:24:34.289Z,17.23
2022-09-12T12:27:52.141Z,18.15
2022-09-12T12:31:08.193Z,17.13
2022-09-12T12:34:02.168Z,16.40
2022-09-12T12:36:50.150Z,17.92
2022-09-12T12:39:45.201Z,16.38
2022-09-12T12:42:48.156Z,17.67
2022-09-12T12:45:35.170Z,17.58
2022-09-12T12:48:16.212Z,17.25
2022-09-12T12:51:42.183Z,17.85
2022-09-12T12:54:44.189Z,16.33
2022-09-12T12:58:13.176Z,17.05
2022-09-12T13:01:28.270Z,17.63
2022-09-12T13:04:12.395Z,16.42
2022-09-12T13:07:29.162Z,15.60
2022-09-12T13:10:04.226Z,17.35
2022-09-12T13:12:54.163Z,18.33
2022-09-12T13:15:49.202Z,17.70
2022-09-12T13:18:55.183Z,17.63
2022-09-12T13:21:42.178Z,18.80
2022-09-12T13:24:30.184Z,18.00
2022-09-12T13:27:38.175Z,16.40
2022-09-12T13:30:25.200Z,18.50
2022-09-12T13:32:59.287Z,16.27
2022-09-12T13:35:58.166Z,14.40
2022-09-12T13:38:52.255Z,19.20
2022-09-12T13:41:57.160Z,19.58
2022-09-12T13:44:40.180Z,17.65
2022-09-12T13:48:02.276Z,17.80
2022-09-12T13:51:04.199Z,15.43
2022-09-12T13:54:03.188Z,17.75
2022-09-12T13:57:03.184Z,16.88
2022-09-12T13:59:56.199Z,17.23
2022-09-12T14:02:31.474Z,16.33
2022-09-12T14:05:26.193Z,17.70
2022-09-12T14:08:04.612Z,17.92
2022-09-12T14:10:54.201Z,17.60
2022-09-12T14:13:39.185Z,16.83
2022-09-12T14:16:35.209Z,19.38
2022-09-12T14:19:26.211Z,16.73
2022-09-12T14:22:02.185Z,16.95
2022-09-12T14:24:49.205Z,17.55
2022-09-12T14:27:28.784Z,19.60
2022-09-12T14:30:28.219Z,18.23
2022-09-12T14:33:23.207Z,18.95
2022-09-12T14:36:47.215Z,18.60
2022-09-12T14:39:46.245Z,17.67
2022-09-12T14:42:27.159Z,17.65
2022-09-12T14:45:25.214Z,17.85
2022-09-12T14:48:06.225Z,18.70
2022-09-12T14:51:04.239Z,17.00
2022-09-12T14:53:55.206Z,17.30
2022-09-12T14:56:43.349Z,17.85
2022-09-12T14:59:36.306Z,16.10
2022-09-12T15:02:27.386Z,17.80
2022-09-12T15:05:14.240Z,17.25
2022-09-12T15:08:09.293Z,18.55
2022-09-12T15:10:56.229Z,15.80
2022-09-12T15:13:38.230Z,16.08
2022-09-12T15:16:32.247Z,21.20
2022-09-12T15:19:26.247Z,21.55
2022-09-12T15:22:20.244Z,17.17
2022-09-12T15:25:07.246Z,16.85
2022-09-12T15:27:43.400Z,19.70
2022-09-12T15:30:30.249Z,16.75
2022-09-12T15:33:03.297Z,19.10
2022-09-12T15:35:50.257Z,17.20
2022-09-12T15:38:26.509Z,17.52
2022-09-12T15:41:18.263Z,15.55
2022-09-12T15:43:52.556Z,17.02
2022-09-12T15:46:39.319Z,16.67
2022-09-12T15:49:20.245Z,17.08
2022-09-12T15:52:14.242Z,14.85
2022-09-12T15:55:08.259Z,18.80
2022-09-12T15:57:55.255Z,16.05
2022-09-12T16:00:28.353Z,17.65
2022-09-12T16:03:27.246Z,18.00
2022-09-12T16:06:14.261Z,17.63
2022-09-12T16:09:08.250Z,17.63
2022-09-12T16:11:55.251Z,15.18
2022-09-12T16:14:28.329Z,15.88
2022-09-12T16:17:22.250Z,14.90
2022-09-12T16:20:09.270Z,18.45
2022-09-12T16:22:42.353Z,16.52
2022-09-12T16:25:29.274Z,15.25
2022-09-12T16:28:03.517Z,16.55
2022-09-12T16:30:50.319Z,18.45
2022-09-12T16:33:23.387Z,15.60
2022-09-12T16:36:12.278Z,15.98
2022-09-12T16:38:50.362Z,17.25
2022-09-12T16:41:37.263Z,18.33
2022-09-12T16:44:10.370Z,18.45
2022-09-12T16:46:57.291Z,16.83
2022-09-12T16:49:30.511Z,22.00
2022-09-12T16:52:18.297Z,23.00
2022-09-12T16:54:51.355Z,25.70
2022-09-12T16:57:39.283Z,23.83
2022-09-12T17:00:15.112Z,25.92
2022-09-12T17:03:02.355Z,27.67
2022-09-12T17:05:42.308Z,39.10
2022-09-12T17:08:29.288Z,42.00
2022-09-12T17:11:18.312Z,38.88
2022-09-12T17:14:14.219Z,41.55
2022-09-12T17:17:08.285Z,45.88
2022-09-12T17:19:55.394Z,46.83
2022-09-12T17:22:35.281Z,42.58
2022-09-12T17:25:22.304Z,43.50
2022-09-12T17:27:55.365Z,36.90
2022-09-12T17:30:42.320Z,34.65
2022-09-12T17:33:16.382Z,31.90
2022-09-12T17:36:12.297Z,30.50
2022-09-12T17:38:53.305Z,30.38
2022-09-12T17:41:48.308Z,26.08
2022-09-12T17:44:36.323Z,23.50
2022-09-12T17:47:18.305Z,22.70
2022-09-12T17:50:30.934Z,24.75
2022-09-12T17:53:19.329Z,21.88
2022-09-12T17:55:54.343Z,20.13
2022-09-12T17:58:42.310Z,19.40
2022-09-12T18:01:39.171Z,21.05
2022-09-12T18:04:26.327Z,19.98
2022-09-12T18:07:07.330Z,23.05
2022-09-12T18:10:01.335Z,22.10
2022-09-12T18:12:48.325Z,22.02
2022-09-12T18:15:21.430Z,22.27
2022-09-12T18:18:08.358Z,20.30
2022-09-12T18:20:41.383Z,20.63
2022-09-12T18:23:28.334Z,23.13
2022-09-12T18:26:05.459Z,24.25
2022-09-12T18:28:52.306Z,20.20
2022-09-12T18:31:28.909Z,20.05
2022-09-12T18:34:19.329Z,22.20
2022-09-12T18:36:54.979Z,19.88
2022-09-12T18:39:41.370Z,20.33
2022-09-12T18:42:14.414Z,23.55
2022-09-12T18:45:01.373Z,20.73
2022-09-12T18:47:34.428Z,19.65
2022-09-12T18:50:21.339Z,17.42
2022-09-12T18:52:59.008Z,18.88
2022-09-12T18:55:46.370Z,17.80
2022-09-12T18:58:26.337Z,17.88
2022-09-12T19:01:23.408Z,17.88
2022-09-12T19:04:11.352Z,18.38
2022-09-12T19:06:50.605Z,18.98
2022-09-12T19:09:37.365Z,16.33
2022-09-12T19:12:10.452Z,16.25
2022-09-12T19:14:57.367Z,17.35
2022-09-12T19:17:37.340Z,18.05
2022-09-12T19:20:31.341Z,15.75
2022-09-12T19:23:18.364Z,17.92
2022-09-12T19:25:51.461Z,17.35
2022-09-12T19:28:38.377Z,17.55
2022-09-12T19:31:13.526Z,18.75
2022-09-12T19:34:00.343Z,18.83
2022-09-12T19:36:44.963Z,18.77
2022-09-12T19:39:32.352Z,18.42
2022-09-12T19:42:05.476Z,17.23
2022-09-12T19:44:52.349Z,16.00
2022-09-12T19:47:25.490Z,16.08
2022-09-12T19:50:13.356Z,17.33
2022-09-12T19:52:53.363Z,16.08
2022-09-12T19:55:49.399Z,16.50
2022-09-12T19:58:44.349Z,18.33
2022-09-12T20:01:41.501Z,16.00
2022-09-12T20:04:35.362Z,18.35
2022-09-12T20:07:22.377Z,18.15
2022-09-12T20:09:55.433Z,16.77
2022-09-12T20:12:42.377Z,16.98
2022-09-12T20:15:16.458Z,16.50
2022-09-12T20:18:10.376Z,18.88
2022-09-12T20:21:04.387Z,18.65
2022-09-12T20:23:52.369Z,18.88
2022-09-12T20:26:28.587Z,16.48
2022-09-12T20:29:15.387Z,17.63
2022-09-12T20:31:49.453Z,19.08
2022-09-12T20:34:36.397Z,20.08
2022-09-12T20:37:09.446Z,16.73
2022-09-12T20:39:56.465Z,17.20
2022-09-12T20:42:36.379Z,19.05
2022-09-12T20:45:30.378Z,19.95
2022-09-12T20:48:24.390Z,17.65
2022-09-12T20:51:18.422Z,18.13
2022-09-12T20:54:14.394Z,19.38
2022-09-12T20:57:08.382Z,17.55
2022-09-12T20:59:55.410Z,18.73
2022-09-12T21:02:29.912Z,19.80
2022-09-12T21:05:16.386Z,17.40
2022-09-12T21:07:56.388Z,18.00
2022-09-12T21:10:50.387Z,18.65
2022-09-12T21:13:44.416Z,18.58
2022-09-12T21:16:38.398Z,19.83
2022-09-12T21:19:32.419Z,18.05
2022-09-12T21:22:26.384Z,19.45
2022-09-12T21:25:13.419Z,18.08
2022-09-12T21:27:53.411Z,19.10
2022-09-12T21:30:40.389Z,19.13
2022-09-12T21:33:13.478Z,19.27
2022-09-12T21:36:00.391Z,18.40
2022-09-12T21:38:33.500Z,18.52
2022-09-12T21:41:22.405Z,20.05
2022-09-12T21:44:02.430Z,21.10
2022-09-12T21:46:56.403Z,20.67
2022-09-12T21:49:43.411Z,19.42
2022-09-12T21:52:18.544Z,18.90
2022-09-12T21:55:05.423Z,18.38
2022-09-12T21:57:42.506Z,20.00
2022-09-12T22:00:29.438Z,20.52
2022-09-12T22:03:04.910Z,18.75
2022-09-12T22:05:51.425Z,18.05
2022-09-12T22:08:24.482Z,19.38
2022-09-12T22:11:15.444Z,18.27
2022-09-12T22:13:48.598Z,20.58
2022-09-12T22:16:35.428Z,19.52
2022-09-12T22:19:08.568Z,19.55
2022-09-12T22:22:13.416Z,30.83
2022-09-12T22:24:46.524Z,39.63
2022-09-12T22:27:33.434Z,26.25
2022-09-12T22:30:13.443Z,25.65
2022-09-12T22:33:00.447Z,25.85
2022-09-12T22:35:40.430Z,27.13
2022-09-12T22:38:34.457Z,27.55
2022-09-12T22:41:28.491Z,47.95
2022-09-12T22:44:17.442Z,25.65
2022-09-12T22:46:52.050Z,28.75
2022-09-12T22:49:38.462Z,25.88
2022-09-12T22:52:11.554Z,30.13
2022-09-12T22:54:58.448Z,30.02
2022-09-12T22:57:31.523Z,23.92
2022-09-12T23:00:18.442Z,23.85
2022-09-12T23:02:51.524Z,23.80
2022-09-12T23:05:38.440Z,23.48
2022-09-12T23:08:18.426Z,19.92
2022-09-12T23:11:17.455Z,19.80
2022-09-12T23:14:04.456Z,19.77
2022-09-12T23:16:37.699Z,18.13
2022-09-12T23:19:24.451Z,19.95
2022-09-12T23:21:57.528Z,19.73
2022-09-12T23:24:44.462Z,17.80
2022-09-12T23:27:24.674Z,18.25
2022-09-12T23:30:12.479Z,19.90
2022-09-12T23:32:45.545Z,21.63
2022-09-12T23:35:32.475Z,19.13
2022-09-12T23:38:06.412Z,19.48
2022-09-12T23:40:53.449Z,19.10
2022-09-12T23:43:26.549Z,23.02
2022-09-12T23:46:14.497Z,21.45
2022-09-12T23:48:48.757Z,20.15
2022-09-12T23:51:35.459Z,20.33
2022-09-12T23:54:08.738Z,20.20
2022-09-12T23:56:55.484Z,20.55
2022-09-12T23:59:31.020Z,23.50
